createdAt,value
2023-04-16T00:01:48.037Z,8.90
2023-04-16T00:04:21.079Z,10.10
2023-04-16T00:06:53.650Z,9.70
2023-04-16T00:09:26.662Z,8.40
2023-04-16T00:11:59.496Z,8.80
2023-04-16T00:14:32.696Z,9.00
2023-04-16T00:17:05.608Z,7.40
2023-04-16T00:19:38.547Z,7.40
2023-04-16T00:22:11.587Z,6.60
2023-04-16T00:24:44.639Z,7.00
2023-04-16T00:27:17.298Z,8.30
2023-04-16T00:29:50.034Z,7.40
2023-04-16T00:32:23.224Z,7.00
2023-04-16T00:34:56.573Z,7.60
2023-04-16T00:37:29.603Z,8.40
2023-04-16T00:40:02.151Z,8.10
2023-04-16T00:42:35.108Z,7.70
2023-04-16T00:45:10.195Z,7.30
2023-04-16T00:47:43.861Z,7.20
2023-04-16T00:50:17.942Z,9.20
2023-04-16T00:52:51.421Z,8.90
2023-04-16T00:55:24.350Z,9.20
2023-04-16T00:57:57.917Z,8.80
2023-04-16T01:00:31.124Z,8.50
2023-04-16T01:03:04.090Z,8.60
2023-04-16T01:05:37.183Z,8.70
2023-04-16T01:08:14.594Z,8.40
2023-04-16T01:10:47.203Z,9.40
2023-04-16T01:13:20.317Z,8.10
2023-04-16T01:15:53.614Z,8.30
2023-04-16T01:18:28.328Z,8.30
2023-04-16T01:21:01.464Z,8.90
2023-04-16T01:23:34.935Z,8.20
2023-04-16T01:26:08.730Z,7.90
2023-04-16T01:28:41.990Z,7.30
2023-04-16T01:31:15.135Z,7.50
2023-04-16T01:34:16.982Z,8.40
2023-04-16T01:36:51.497Z,8.20
2023-04-16T01:39:24.774Z,8.60
2023-04-16T01:41:57.585Z,8.10
2023-04-16T01:44:31.652Z,8.20
2023-04-16T01:47:04.557Z,8.40
2023-04-16T01:49:37.854Z,8.00
2023-04-16T01:52:10.597Z,8.40
2023-04-16T01:54:43.577Z,8.00
2023-04-16T01:57:17.224Z,8.30
2023-04-16T01:59:49.953Z,8.50
2023-04-16T02:02:28.427Z,8.60
2023-04-16T02:05:01.503Z,8.70
2023-04-16T02:07:35.907Z,8.60
2023-04-16T02:10:11.429Z,8.20
2023-04-16T02:12:45.904Z,8.80
2023-04-16T02:15:19.661Z,8.40
2023-04-16T02:17:57.008Z,8.60
2023-04-16T02:20:31.340Z,8.50
2023-04-16T02:23:05.792Z,7.60
2023-04-16T02:25:42.571Z,8.20
2023-04-16T02:28:17.233Z,8.90
2023-04-16T02:30:51.082Z,8.70
2023-04-16T02:33:26.668Z,9.20
2023-04-16T02:36:06.439Z,9.10
2023-04-16T02:38:39.135Z,8.30
2023-04-16T02:41:12.109Z,7.30
2023-04-16T02:43:44.976Z,8.70
2023-04-16T02:46:17.763Z,8.60
2023-04-16T02:48:50.836Z,8.90
2023-04-16T02:51:23.655Z,8.40
2023-04-16T02:53:56.332Z,8.10
2023-04-16T02:56:29.006Z,8.30
2023-04-16T02:59:01.738Z,9.10
2023-04-16T03:01:34.828Z,9.00
2023-04-16T03:04:08.179Z,8.70
2023-04-16T03:06:41.109Z,9.00
2023-04-16T03:09:15.320Z,9.10
2023-04-16T03:11:48.778Z,7.90
2023-04-16T03:14:21.767Z,8.90
2023-04-16T03:16:54.397Z,8.90
2023-04-16T03:19:27.242Z,8.50
2023-04-16T03:22:00.177Z,9.00
2023-04-16T03:24:33.444Z,8.30
2023-04-16T03:27:06.407Z,9.60
2023-04-16T03:29:42.140Z,10.10
2023-04-16T03:32:15.195Z,10.60
2023-04-16T03:34:48.468Z,9.70
2023-04-16T03:37:21.308Z,8.50
2023-04-16T03:39:55.960Z,8.80
2023-04-16T03:42:28.659Z,9.10
2023-04-16T03:45:03.296Z,9.90
2023-04-16T03:47:36.816Z,10.20
2023-04-16T03:50:11.862Z,9.20
2023-04-16T03:52:45.233Z,8.20
2023-04-16T03:55:18.780Z,9.10
2023-04-16T03:57:51.555Z,7.70
2023-04-16T04:00:25.165Z,9.60
2023-04-16T04:03:05.294Z,9.20
2023-04-16T04:05:40.536Z,8.70
2023-04-16T04:08:14.693Z,8.50
2023-04-16T04:10:47.966Z,8.50
2023-04-16T04:13:22.346Z,8.70
2023-04-16T04:15:55.407Z,9.60
2023-04-16T04:18:29.206Z,9.00
2023-04-16T04:21:02.552Z,7.50
2023-04-16T04:23:38.302Z,8.50
2023-04-16T04:26:11.840Z,8.80
2023-04-16T04:28:45.410Z,8.50
2023-04-16T04:31:18.659Z,8.30
2023-04-16T04:33:52.968Z,8.90
2023-04-16T04:36:27.661Z,9.70
2023-04-16T04:39:01.646Z,8.20
2023-04-16T04:41:34.969Z,8.80
2023-04-16T04:44:08.219Z,8.40
2023-04-16T04:46:41.722Z,9.40
2023-04-16T04:49:14.473Z,8.00
2023-04-16T04:51:47.304Z,8.40
2023-04-16T04:54:20.470Z,8.10
2023-04-16T04:56:53.803Z,8.10
2023-04-16T04:59:26.872Z,8.40
2023-04-16T05:01:59.795Z,8.10
2023-04-16T05:04:32.932Z,8.80
2023-04-16T05:07:06.949Z,8.90
2023-04-16T05:09:40.162Z,8.30
2023-04-16T05:12:14.610Z,8.50
2023-04-16T05:14:47.211Z,8.90
2023-04-16T05:17:19.791Z,7.70
2023-04-16T05:19:52.842Z,7.90
2023-04-16T05:22:25.930Z,8.00
2023-04-16T05:24:58.863Z,6.80
2023-04-16T05:27:31.489Z,7.80
2023-04-16T05:30:04.391Z,8.30
2023-04-16T05:32:37.964Z,7.60
2023-04-16T05:35:11.516Z,7.50
2023-04-16T05:37:44.946Z,7.80
2023-04-16T05:40:17.938Z,6.80
2023-04-16T05:42:50.998Z,7.20
2023-04-16T05:45:25.175Z,7.20
2023-04-16T05:48:00.350Z,7.40
2023-04-16T05:50:33.332Z,7.80
2023-04-16T05:53:08.522Z,7.20
2023-04-16T05:55:41.602Z,7.40
2023-04-16T05:58:15.110Z,7.60
2023-04-16T06:00:47.951Z,7.40
2023-04-16T06:03:21.046Z,6.30
2023-04-16T06:05:54.270Z,6.20
2023-04-16T06:08:28.070Z,6.70
2023-04-16T06:11:01.346Z,5.70
2023-04-16T06:13:34.282Z,6.00
2023-04-16T06:16:07.551Z,6.70
2023-04-16T06:18:41.034Z,6.50
2023-04-16T06:21:13.685Z,4.80
2023-04-16T06:23:47.315Z,6.10
2023-04-16T06:26:19.996Z,5.60
2023-04-16T06:28:54.641Z,5.40
2023-04-16T06:31:27.488Z,6.40
2023-04-16T06:34:00.221Z,5.30
2023-04-16T06:36:32.862Z,5.30
2023-04-16T06:39:05.778Z,5.00
2023-04-16T06:41:39.129Z,5.60
2023-04-16T06:44:12.107Z,5.70
2023-04-16T06:46:44.778Z,5.70
2023-04-16T06:49:17.590Z,5.60
2023-04-16T06:51:50.195Z,6.00
2023-04-16T06:54:23.550Z,5.70
2023-04-16T06:56:56.174Z,4.70
2023-04-16T06:59:29.045Z,5.20
2023-04-16T07:02:03.236Z,4.50
2023-04-16T07:04:36.117Z,5.30
2023-04-16T07:07:08.790Z,5.10
2023-04-16T07:09:42.053Z,5.30
2023-04-16T07:12:15.313Z,5.30
2023-04-16T07:14:49.110Z,5.60
2023-04-16T07:17:21.977Z,4.40
2023-04-16T07:19:55.164Z,4.50
2023-04-16T07:22:28.498Z,5.10
2023-04-16T07:25:01.146Z,5.90
2023-04-16T07:27:34.346Z,4.70
2023-04-16T07:30:09.513Z,4.50
2023-04-16T07:32:42.264Z,4.70
2023-04-16T07:35:15.217Z,4.80
2023-04-16T07:37:47.923Z,4.60
2023-04-16T07:40:21.362Z,4.60
2023-04-16T07:42:54.036Z,4.60
2023-04-16T07:45:27.505Z,4.70
2023-04-16T07:48:00.424Z,4.90
2023-04-16T07:50:34.221Z,4.60
2023-04-16T07:53:08.045Z,5.70
2023-04-16T07:55:42.201Z,5.10
2023-04-16T07:58:14.955Z,5.00
2023-04-16T08:00:49.770Z,5.40
2023-04-16T08:03:24.357Z,4.90
2023-04-16T08:05:58.408Z,4.60
2023-04-16T08:08:32.546Z,4.40
2023-04-16T08:11:05.256Z,4.30
2023-04-16T08:13:38.008Z,4.70
2023-04-16T08:16:11.389Z,4.50
2023-04-16T08:18:43.982Z,5.00
2023-04-16T08:21:17.740Z,4.50
2023-04-16T08:23:50.797Z,4.30
2023-04-16T08:26:23.266Z,4.50
2023-04-16T08:28:56.018Z,4.90
2023-04-16T08:31:28.742Z,3.70
2023-04-16T08:34:01.743Z,5.00
2023-04-16T08:36:34.651Z,4.30
2023-04-16T08:39:07.356Z,4.90
2023-04-16T08:41:40.650Z,4.50
2023-04-16T08:44:15.834Z,4.90
2023-04-16T08:46:49.006Z,4.80
2023-04-16T08:49:21.855Z,4.00
2023-04-16T08:51:55.061Z,3.70
2023-04-16T08:54:56.449Z,4.00
2023-04-16T09:00:01.861Z,4.70
2023-04-16T09:02:35.175Z,4.70
2023-04-16T09:05:09.433Z,5.10
2023-04-16T09:07:42.169Z,4.10
2023-04-16T09:10:15.364Z,4.40
2023-04-16T09:12:48.543Z,3.90
2023-04-16T09:15:21.734Z,3.80
2023-04-16T09:17:56.655Z,3.60
2023-04-16T09:20:29.482Z,4.40
2023-04-16T09:23:02.238Z,3.90
2023-04-16T09:25:38.876Z,4.00
2023-04-16T09:28:12.199Z,4.10
2023-04-16T09:30:46.156Z,5.30
2023-04-16T09:33:23.047Z,4.50
2023-04-16T09:35:56.456Z,3.80
2023-04-16T09:38:29.064Z,5.10
2023-04-16T09:41:10.864Z,5.30
2023-04-16T09:43:44.548Z,6.00
2023-04-16T09:46:17.147Z,5.20
2023-04-16T09:48:50.544Z,5.40
2023-04-16T09:51:23.371Z,4.40
2023-04-16T09:53:58.146Z,3.70
2023-04-16T09:56:30.865Z,3.20
2023-04-16T09:59:04.401Z,4.20
2023-04-16T10:01:38.139Z,3.50
2023-04-16T10:04:11.290Z,3.40
2023-04-16T10:06:46.141Z,3.70
2023-04-16T10:09:19.493Z,3.30
2023-04-16T10:11:52.210Z,3.10
2023-04-16T10:14:25.083Z,2.70
2023-04-16T10:16:58.305Z,2.40
2023-04-16T10:19:31.918Z,2.30
2023-04-16T10:22:04.560Z,4.20
2023-04-16T10:24:37.474Z,3.10
2023-04-16T10:27:10.329Z,2.80
2023-04-16T10:29:43.449Z,3.30
2023-04-16T10:32:16.539Z,3.10
2023-04-16T10:34:50.031Z,3.40
2023-04-16T10:37:23.272Z,4.80
2023-04-16T10:39:56.147Z,4.40
2023-04-16T10:42:28.862Z,4.90
2023-04-16T10:45:05.786Z,4.00
2023-04-16T10:47:43.330Z,2.80
2023-04-16T10:50:20.873Z,2.60
2023-04-16T10:53:05.084Z,2.20
2023-04-16T10:55:41.190Z,2.30
2023-04-16T10:58:30.539Z,4.30
2023-04-16T11:01:07.903Z,3.00
2023-04-16T11:03:44.478Z,4.40
2023-04-16T11:06:18.517Z,4.60
2023-04-16T11:09:08.571Z,3.80
2023-04-16T11:11:42.077Z,2.40
2023-04-16T11:14:14.626Z,2.30
2023-04-16T11:16:47.788Z,2.10
2023-04-16T11:19:20.822Z,2.20
2023-04-16T11:21:53.713Z,2.10
2023-04-16T11:24:27.625Z,2.10
2023-04-16T11:27:00.237Z,2.50
2023-04-16T11:29:32.994Z,3.30
2023-04-16T11:32:06.267Z,6.70
2023-04-16T11:34:46.421Z,6.40
2023-04-16T11:37:19.100Z,3.70
2023-04-16T11:39:53.705Z,3.20
2023-04-16T11:42:27.238Z,3.80
2023-04-16T11:45:01.907Z,3.00
2023-04-16T11:47:44.246Z,2.50
2023-04-16T11:50:22.139Z,2.70
2023-04-16T11:52:56.283Z,2.90
2023-04-16T11:55:28.802Z,2.60
2023-04-16T11:58:02.623Z,4.10
2023-04-16T12:00:39.060Z,3.90
2023-04-16T12:03:12.187Z,3.60
2023-04-16T12:05:45.006Z,3.70
2023-04-16T12:08:29.696Z,3.60
2023-04-16T12:11:02.253Z,3.00
2023-04-16T12:13:40.320Z,3.00
2023-04-16T12:16:22.140Z,2.50
2023-04-16T12:19:04.312Z,2.40
2023-04-16T12:21:44.358Z,2.80
2023-04-16T12:24:20.840Z,2.70
2023-04-16T12:26:57.797Z,2.90
2023-04-16T12:29:30.675Z,1.90
2023-04-16T12:32:03.276Z,2.10
2023-04-16T12:34:48.904Z,2.50
2023-04-16T12:37:22.274Z,3.20
2023-04-16T12:39:55.031Z,3.90
2023-04-16T12:42:27.927Z,3.10
2023-04-16T12:45:00.633Z,3.60
2023-04-16T12:47:34.093Z,3.60
2023-04-16T12:50:07.509Z,5.30
2023-04-16T12:52:40.404Z,3.60
2023-04-16T12:55:14.358Z,3.30
2023-04-16T12:57:49.121Z,3.60
2023-04-16T13:00:22.924Z,2.40
2023-04-16T13:02:56.462Z,2.20
2023-04-16T13:05:29.481Z,2.70
2023-04-16T13:08:02.408Z,3.40
2023-04-16T13:10:35.301Z,4.90
2023-04-16T13:13:08.359Z,3.20
2023-04-16T13:15:41.300Z,4.10
2023-04-16T13:18:13.979Z,4.30
2023-04-16T13:20:47.253Z,4.90
2023-04-16T13:23:20.241Z,4.50
2023-04-16T13:25:52.956Z,4.10
2023-04-16T13:28:25.774Z,3.10
2023-04-16T13:30:58.449Z,2.50
2023-04-16T13:33:31.621Z,2.90
2023-04-16T13:36:05.055Z,4.30
2023-04-16T13:38:37.597Z,3.10
2023-04-16T13:41:10.589Z,4.00
2023-04-16T13:43:43.294Z,2.90
2023-04-16T13:46:17.443Z,3.70
2023-04-16T13:48:50.071Z,9.60
2023-04-16T13:51:23.071Z,7.80
2023-04-16T13:53:56.822Z,5.20
2023-04-16T13:56:29.466Z,3.70
2023-04-16T13:59:02.109Z,3.60
2023-04-16T14:01:34.952Z,4.60
2023-04-16T14:04:08.299Z,4.50
2023-04-16T14:06:41.307Z,3.30
2023-04-16T14:09:14.271Z,3.10
2023-04-16T14:11:46.950Z,4.00
2023-04-16T14:14:19.584Z,4.60
2023-04-16T14:16:52.165Z,5.20
2023-04-16T14:19:26.113Z,6.10
2023-04-16T14:21:58.645Z,6.50
2023-04-16T14:24:32.146Z,5.00
2023-04-16T14:27:04.681Z,5.60
2023-04-16T14:29:37.814Z,6.90
2023-04-16T14:32:11.030Z,6.60
2023-04-16T14:34:43.720Z,4.60
2023-04-16T14:37:18.923Z,4.70
2023-04-16T14:39:51.981Z,6.60
2023-04-16T14:42:25.119Z,6.70
2023-04-16T14:44:58.122Z,6.10
2023-04-16T14:47:31.194Z,5.70
2023-04-16T14:50:03.966Z,5.30
2023-04-16T14:52:37.110Z,5.30
2023-04-16T14:55:10.688Z,3.90
2023-04-16T14:57:44.094Z,3.50
2023-04-16T15:00:19.015Z,4.80
2023-04-16T15:02:51.937Z,5.40
2023-04-16T15:05:25.264Z,7.00
2023-04-16T15:07:58.514Z,9.80
2023-04-16T15:10:31.312Z,10.00
2023-04-16T15:13:04.339Z,8.50
2023-04-16T15:15:37.889Z,6.50
2023-04-16T15:18:10.765Z,7.40
2023-04-16T15:20:43.549Z,7.20
2023-04-16T15:23:16.842Z,5.70
2023-04-16T15:25:49.386Z,3.70
2023-04-16T15:28:22.314Z,3.10
2023-04-16T15:30:55.250Z,3.60
2023-04-16T15:33:29.239Z,4.10
2023-04-16T15:36:02.511Z,6.40
2023-04-16T15:38:35.231Z,7.00
2023-04-16T15:41:07.826Z,5.50
2023-04-16T15:43:40.643Z,8.10
2023-04-16T15:46:13.779Z,7.10
2023-04-16T15:48:46.360Z,8.40
2023-04-16T15:51:19.210Z,9.30
2023-04-16T15:53:52.163Z,9.50
2023-04-16T15:56:25.151Z,9.40
2023-04-16T15:58:58.125Z,9.80
2023-04-16T16:01:31.336Z,6.40
2023-04-16T16:04:11.824Z,8.10
2023-04-16T16:06:44.651Z,8.70
2023-04-16T16:09:17.390Z,6.00
2023-04-16T16:11:50.089Z,7.50
2023-04-16T16:14:23.191Z,7.50
2023-04-16T16:16:55.990Z,5.40
2023-04-16T16:19:29.013Z,5.30
2023-04-16T16:22:02.152Z,5.60
2023-04-16T16:24:35.118Z,8.90
2023-04-16T16:27:07.947Z,8.60
2023-04-16T16:29:41.009Z,4.80
2023-04-16T16:32:13.670Z,3.70
2023-04-16T16:34:46.626Z,5.50
2023-04-16T16:37:19.325Z,4.80
2023-04-16T16:39:52.265Z,4.40
2023-04-16T16:42:25.411Z,4.80
2023-04-16T16:44:58.040Z,4.80
2023-04-16T16:47:30.679Z,4.80
2023-04-16T16:50:04.238Z,4.50
2023-04-16T16:52:37.359Z,4.70
2023-04-16T16:55:11.885Z,4.80
2023-04-16T16:57:44.700Z,4.50
2023-04-16T17:00:21.688Z,3.60
2023-04-16T17:02:54.810Z,3.60
2023-04-16T17:05:27.801Z,3.90
2023-04-16T17:08:00.322Z,4.70
2023-04-16T17:10:33.247Z,5.60
2023-04-16T17:13:06.257Z,8.70
2023-04-16T17:15:38.953Z,12.80
2023-04-16T17:18:11.822Z,12.80
2023-04-16T17:20:44.561Z,12.10
2023-04-16T17:23:17.395Z,8.50
2023-04-16T17:25:50.040Z,10.30
2023-04-16T17:28:23.291Z,8.80
2023-04-16T17:30:57.123Z,7.20
2023-04-16T17:33:29.826Z,8.50
2023-04-16T17:36:03.184Z,7.50
2023-04-16T17:38:36.113Z,7.60
2023-04-16T17:41:08.785Z,6.80
2023-04-16T17:43:41.483Z,6.60
2023-04-16T17:46:14.608Z,7.70
2023-04-16T17:48:49.036Z,6.80
2023-04-16T17:51:21.940Z,6.90
2023-04-16T17:53:55.078Z,8.20
2023-04-16T17:56:28.734Z,8.00
2023-04-16T17:59:01.518Z,6.40
2023-04-16T18:01:34.481Z,7.20
2023-04-16T18:04:07.379Z,5.50
2023-04-16T18:06:40.321Z,5.20
2023-04-16T18:09:14.575Z,5.60
2023-04-16T18:11:47.295Z,5.30
2023-04-16T18:14:21.725Z,6.00
2023-04-16T18:16:54.394Z,6.50
2023-04-16T18:19:27.092Z,5.80
2023-04-16T18:22:00.105Z,7.70
2023-04-16T18:24:33.586Z,5.80
2023-04-16T18:27:07.169Z,7.10
2023-04-16T18:29:40.552Z,6.50
2023-04-16T18:32:13.568Z,6.40
2023-04-16T18:34:46.111Z,5.80
2023-04-16T18:37:19.735Z,6.00
2023-04-16T18:39:52.341Z,6.10
2023-04-16T18:42:28.134Z,5.60
2023-04-16T18:45:01.379Z,4.30
2023-04-16T18:47:35.208Z,4.90
2023-04-16T18:50:10.614Z,5.50
2023-04-16T18:52:43.602Z,5.10
2023-04-16T18:55:16.467Z,6.40
2023-04-16T18:57:49.379Z,7.30
2023-04-16T19:00:22.837Z,6.90
2023-04-16T19:02:55.499Z,6.00
2023-04-16T19:05:28.319Z,6.80
2023-04-16T19:08:01.712Z,4.60
2023-04-16T19:10:34.918Z,4.40
2023-04-16T19:13:07.554Z,4.50
2023-04-16T19:15:40.330Z,5.70
2023-04-16T19:18:13.004Z,5.80
2023-04-16T19:20:45.659Z,5.30
2023-04-16T19:23:18.374Z,4.60
2023-04-16T19:25:51.536Z,3.80
2023-04-16T19:28:24.756Z,3.90
2023-04-16T19:30:57.565Z,3.80
2023-04-16T19:33:32.001Z,3.30
2023-04-16T19:36:04.969Z,3.50
2023-04-16T19:38:41.388Z,3.20
2023-04-16T19:41:14.116Z,5.00
2023-04-16T19:43:47.329Z,4.50
2023-04-16T19:46:20.109Z,3.90
2023-04-16T19:48:54.400Z,6.90
2023-04-16T19:51:27.742Z,11.20
2023-04-16T19:54:02.343Z,16.70
2023-04-16T19:56:35.526Z,18.20
2023-04-16T19:59:08.365Z,25.20
2023-04-16T20:01:42.418Z,22.70
2023-04-16T20:04:15.696Z,21.00
2023-04-16T20:06:48.544Z,16.90
2023-04-16T20:09:22.816Z,9.40
2023-04-16T20:11:56.063Z,11.10
2023-04-16T20:14:28.649Z,7.90
2023-04-16T20:17:02.199Z,4.60
2023-04-16T20:19:38.276Z,4.10
2023-04-16T20:22:11.042Z,4.50
2023-04-16T20:24:47.885Z,3.90
2023-04-16T20:27:21.841Z,2.90
2023-04-16T20:29:56.125Z,4.30
2023-04-16T20:32:29.323Z,3.30
2023-04-16T20:35:04.137Z,3.70
2023-04-16T20:37:38.383Z,4.50
2023-04-16T20:40:13.981Z,3.80
2023-04-16T20:42:47.693Z,3.90
2023-04-16T20:45:21.169Z,3.80
2023-04-16T20:47:53.910Z,4.10
2023-04-16T20:50:26.853Z,5.30
2023-04-16T20:52:59.809Z,4.60
2023-04-16T20:55:32.930Z,5.00
2023-04-16T20:58:05.672Z,4.60
2023-04-16T21:00:39.146Z,4.80
2023-04-16T21:03:11.907Z,4.90
2023-04-16T21:05:50.127Z,5.20
2023-04-16T21:08:23.348Z,4.50
2023-04-16T21:10:56.132Z,5.60
2023-04-16T21:13:29.317Z,5.50
2023-04-16T21:16:02.389Z,6.90
2023-04-16T21:18:36.984Z,6.00
2023-04-16T21:21:09.626Z,8.80
2023-04-16T21:23:43.089Z,10.20
2023-04-16T21:26:15.802Z,8.60
2023-04-16T21:28:48.486Z,10.40
2023-04-16T21:31:21.336Z,14.80
2023-04-16T21:33:54.035Z,16.40
2023-04-16T21:36:28.243Z,16.20
2023-04-16T21:39:01.060Z,26.30
2023-04-16T21:41:34.132Z,23.80
2023-04-16T21:44:06.907Z,23.80
2023-04-16T21:46:40.185Z,24.50
2023-04-16T21:49:13.097Z,24.60
2023-04-16T21:51:46.545Z,20.90
2023-04-16T21:54:20.924Z,24.50
2023-04-16T21:56:54.223Z,18.80
2023-04-16T21:59:26.822Z,20.60
2023-04-16T22:02:00.151Z,21.50
2023-04-16T22:04:39.072Z,17.10
2023-04-16T22:07:11.886Z,18.90
2023-04-16T22:09:44.709Z,21.80
2023-04-16T22:12:17.444Z,18.20
2023-04-16T22:17:29.317Z,16.70
2023-04-16T22:20:06.494Z,17.30
2023-04-16T22:22:39.257Z,19.70
2023-04-16T22:25:12.654Z,18.60
2023-04-16T22:27:45.310Z,18.80
2023-04-16T22:30:18.100Z,18.50
2023-04-16T22:32:51.418Z,11.30
2023-04-16T22:35:24.236Z,10.60
2023-04-16T22:37:57.237Z,12.60
2023-04-16T22:40:30.135Z,10.40
2023-04-16T22:43:03.246Z,9.90
2023-04-16T22:45:35.987Z,12.70
2023-04-16T22:48:08.875Z,13.40
2023-04-16T22:50:42.096Z,12.30
2023-04-16T22:53:14.877Z,13.10
2023-04-16T22:55:47.561Z,11.90
2023-04-16T22:58:21.674Z,14.90
2023-04-16T23:00:56.874Z,15.00
2023-04-16T23:03:30.889Z,16.80
2023-04-16T23:06:04.740Z,18.20
2023-04-16T23:08:37.813Z,19.10
2023-04-16T23:11:10.738Z,21.90
2023-04-16T23:13:43.583Z,22.30
2023-04-16T23:16:16.818Z,27.90
2023-04-16T23:18:49.793Z,26.20
2023-04-16T23:21:23.270Z,21.00
2023-04-16T23:23:57.415Z,21.00
2023-04-16T23:26:30.311Z,26.70
2023-04-16T23:29:02.977Z,26.60
2023-04-16T23:31:36.381Z,27.90
2023-04-16T23:34:09.334Z,29.40
2023-04-16T23:36:42.440Z,24.20
2023-04-16T23:39:15.214Z,19.20
2023-04-16T23:41:48.259Z,17.20
2023-04-16T23:44:20.976Z,15.50
2023-04-16T23:46:53.700Z,14.10
2023-04-16T23:49:26.507Z,13.90
2023-04-16T23:51:59.285Z,13.40
2023-04-16T23:54:31.963Z,13.10
2023-04-16T23:57:04.656Z,16.50
2023-04-16T23:59:37.977Z,22.30
